Latest Weather Observations for Gold Coast Seaway

IDQ60901

Issued at 9:11 pm EST Saturday 30 April 2016 (issued every 10 minutes, with the page automatically refreshed every 10 minutes)

About weather observations | Map of Brisbane area stations | Latest observations for Brisbane area | Other Formats
Station Details ID: 040764 Name: GOLD COAST SEAWAY Lat: -27.94 Lon: 153.43 Height: 2.98 m
Data from the previous 72 hours. | See also: Recent months at Gold Coast Seaway
Date/Time
EST
Tmp

°C
App
Tmp
°C
Dew
Point
°C
Rel
Hum
%
Delta-T

°C
Wind Press
QNH
hPa
Press
MSL
hPa
Rain
since
9 am
mm
Dir
 
Spd
km/h
Gust
km/h
Spd
kts
Gust
kts
30/09:00pm 23.6 24.9 21.7 89 1.3 NNE 17 19 9 10 1020.3 1020.3 0.2
30/08:30pm 23.8 25.1 21.7 88 1.4 NE 17 19 9 10 1020.1 1020.1 0.2
30/08:00pm 23.9 25.6 21.6 87 1.5 ENE 15 17 8 9 1020.0 1020.0 0.2
30/07:30pm 23.8 25.4 21.5 87 1.5 NE 15 17 8 9 1019.8 1019.8 0.2
30/07:00pm 23.9 25.2 21.6 87 1.5 NE 17 17 9 9 1019.5 1019.5 0.2
30/06:30pm 23.9 25.5 21.4 86 1.6 ENE 15 19 8 10 1019.4 1019.4 0.2
30/06:00pm 23.9 25.0 21.2 85 1.8 NE 17 20 9 11 1019.3 1019.3 0.2
30/05:30pm 23.9 25.5 21.4 86 1.6 NE 15 19 8 10 1019.1 1019.1 0.2
30/05:00pm 24.1 25.2 21.2 84 1.9 NE 17 20 9 11 1018.7 1018.7 0.2
30/04:30pm 24.6 26.8 21.9 85 1.8 E 13 17 7 9 1018.7 1018.7 0.2
30/04:00pm 25.0 27.2 21.1 79 2.6 ENE 11 13 6 7 1018.5 1018.5 0.2
30/03:30pm 25.3 27.1 21.2 78 2.7 ENE 13 15 7 8 1018.5 1018.5 0.2
30/03:00pm 25.7 28.5 21.6 78 2.7 ENE 9 11 5 6 1018.5 1018.5 0.2
30/02:30pm 25.3 27.6 21.4 79 2.6 ENE 11 13 6 7 1018.6 1018.6 0.2
30/02:00pm 25.2 28.2 21.9 82 2.2 E 9 11 5 6 1018.7 1018.7 0.2
30/01:30pm 26.4 29.5 22.9 81 2.4 ESE 11 13 6 7 1018.8 1018.8 0.2
30/01:00pm 25.3 27.9 22.0 82 2.2 SE 11 13 6 7 1019.2 1019.2 0.2
30/12:30pm 25.2 26.9 20.9 77 2.8 SSE 13 15 7 8 1019.6 1019.6 0.2
30/12:00pm 25.5 27.7 21.8 80 2.5 SSE 13 15 7 8 1019.9 1019.9 0.2
30/11:30am 24.3 26.2 20.6 80 2.4 SSE 11 13 6 7 1020.6 1020.6 0.2
30/11:00am 25.6 27.9 22.1 81 2.3 SSE 13 15 7 8 1021.1 1021.1 0.2
30/10:30am 24.0 26.2 20.3 80 2.4 SSE 9 11 5 6 1021.4 1021.4 0.0
30/10:00am 22.9 24.6 20.2 85 1.7 SSE 11 13 6 7 1021.8 1021.8 0.0
30/09:30am 22.7 25.3 21.9 95 0.5 SSE 11 11 6 6 1021.9 1021.9 0.0
30/09:00am 22.8 25.5 22.8 100 0.0 SSE 13 17 7 9 1021.9 1021.9 7.2
30/08:30am 21.7 23.8 21.7 100 0.0 ESE 13 22 7 12 1022.0 1022.0 7.2
30/08:00am 21.5 24.3 21.5 100 0.0 SSW 9 11 5 6 1021.8 1021.8 7.2
30/07:30am 20.8 23.6 20.8 100 0.0 SSW 7 9 4 5 1021.5 1021.5 7.2
30/07:00am 20.4 22.2 20.4 100 0.0 SW 11 13 6 7 1021.3 1021.3 7.2
30/06:30am 20.3 22.5 20.3 100 0.0 SW 9 13 5 7 1021.0 1021.0 7.2
30/06:00am 20.2 21.9 20.2 100 0.0 SW 11 15 6 8 1020.7 1020.7 7.2
30/05:30am 20.3 22.5 20.3 100 0.0 SSW 9 13 5 7 1020.6 1020.6 7.2
30/05:00am 20.2 21.5 20.2 100 0.0 SW 13 15 7 8 1020.5 1020.5 7.2
30/04:30am 20.3 23.0 20.3 100 0.0 SSW 6 9 3 5 1020.1 1020.1 7.2
30/04:00am 20.1 22.5 20.1 100 0.0 SSW 7 9 4 5 1020.3 1020.3 7.2
30/03:30am 20.3 22.8 20.3 100 0.0 SSW 7 9 4 5 1020.4 1020.4 7.0
30/03:00am 20.3 22.5 20.3 100 0.0 SSW 9 13 5 7 1020.3 1020.3 7.0
30/02:30am 20.3 21.7 20.3 100 0.0 WNW 13 15 7 8 1020.7 1020.7 6.8
30/02:00am 20.5 22.4 20.5 100 0.0 SSW 11 15 6 8 1020.8 1020.8 5.6
30/01:30am 20.5 22.4 20.5 100 0.0 SW 11 17 6 9 1021.0 1021.0 3.0
30/01:00am 20.5 22.0 20.5 100 0.0 SW 13 15 7 8 1021.2 1021.2 3.0
30/12:30am 20.7 22.9 20.5 99 0.1 SW 9 15 5 8 1021.5 1021.5 2.8
30/12:00am 21.2 23.8 21.2 100 0.0 SSW 9 13 5 7 1021.8 1021.8 2.8
 
Date/Time
EST
Tmp

°C
App
Tmp
°C
Dew
Point
°C
Rel
Hum
%
Delta-T

°C
Wind Press
QNH
hPa
Press
MSL
hPa
Rain
since
9 am
mm
Dir
 
Spd
km/h
Gust
km/h
Spd
kts
Gust
kts
29/11:30pm 21.3 23.5 21.1 99 0.1 SSW 11 15 6 8 1022.1 1022.1 2.8
29/11:00pm 21.3 23.5 21.1 99 0.1 SW 11 13 6 7 1022.4 1022.4 2.8
29/10:30pm 21.6 24.1 21.1 97 0.3 NE 9 13 5 7 1022.7 1022.7 2.8
29/10:00pm 21.4 23.6 21.2 99 0.1 SSW 11 15 6 8 1022.6 1022.6 2.8
29/09:30pm 21.5 23.5 20.8 96 0.5 S 11 15 6 8 1022.7 1022.7 2.8
29/09:00pm 22.3 23.6 20.9 92 0.9 E 15 20 8 11 1022.6 1022.6 2.6
29/08:46pm 22.9 22.1 20.1 84 1.8 ENE 24 33 13 18 1022.7 1022.7 0.2
29/08:30pm 23.5 24.7 19.8 80 2.4 SE 13 15 7 8 1022.4 1022.4 0.2
29/08:00pm 23.4 24.4 19.5 79 2.5 SE 13 17 7 9 1022.4 1022.4 0.2
29/07:30pm 23.5 24.2 19.6 79 2.5 ESE 15 17 8 9 1022.2 1022.2 0.2
29/07:00pm 23.3 23.4 19.2 78 2.6 ESE 17 19 9 10 1022.0 1022.0 0.2
29/06:30pm 23.2 22.7 18.7 76 2.8 ESE 19 20 10 11 1021.6 1021.6 0.2
29/06:00pm 23.1 22.6 18.6 76 2.8 ESE 19 22 10 12 1021.5 1021.5 0.2
29/05:30pm 23.3 23.1 18.6 75 3.0 ESE 17 19 9 10 1021.4 1021.4 0.2
29/05:00pm 23.6 23.2 18.9 75 3.0 ESE 19 22 10 12 1021.1 1021.1 0.2
29/04:30pm 23.9 23.1 18.5 72 3.4 ESE 20 22 11 12 1020.9 1020.9 0.2
29/04:00pm 24.0 22.5 18.6 72 3.4 ESE 24 28 13 15 1020.6 1020.6 0.2
29/03:30pm 25.6 25.2 19.3 68 4.0 ESE 20 24 11 13 1020.7 1020.7 0.2
29/03:00pm 24.8 24.3 19.0 70 3.7 ESE 20 26 11 14 1020.6 1020.6 0.2
29/02:30pm 25.4 25.6 19.3 69 3.9 ESE 17 20 9 11 1020.8 1020.8 0.2
29/02:00pm 25.9 25.6 19.1 66 4.3 SE 19 20 10 11 1020.9 1020.9 0.2
29/01:30pm 26.6 26.2 19.0 63 4.9 SE 19 20 10 11 1021.0 1021.0 0.2
29/01:00pm 26.3 26.6 18.7 63 4.8 ESE 15 19 8 10 1021.1 1021.1 0.2
29/12:30pm 26.2 26.4 20.1 69 4.0 SSE 19 22 10 12 1021.6 1021.6 0.2
29/12:00pm 26.4 26.7 20.5 70 3.9 SE 19 20 10 11 1022.1 1022.1 0.2
29/11:30am 26.1 26.4 20.4 71 3.7 SE 19 24 10 13 1022.5 1022.5 0.2
29/11:00am 25.9 26.1 20.5 72 3.5 SSE 20 26 11 14 1023.3 1023.3 0.2
29/10:30am 25.2 25.1 20.0 73 3.4 SSE 20 26 11 14 1023.8 1023.8 0.2
29/10:00am 25.0 25.4 20.9 78 2.7 SSE 20 24 11 13 1024.1 1024.1 0.0
29/09:30am 23.0 25.8 21.5 91 1.0 S 9 13 5 7 1024.2 1024.2 0.0
29/09:00am 21.6 23.4 20.4 93 0.8 SSW 11 19 6 10 1024.2 1024.2 -
29/08:30am 21.7 22.7 19.4 87 1.5 S 13 19 7 10 1024.2 1024.2 -
29/08:00am 21.1 22.4 19.4 90 1.1 SSW 11 15 6 8 1024.1 1024.1 -
29/07:30am 20.4 21.7 19.4 94 0.6 SSW 11 13 6 7 1023.6 1023.6 -
29/07:00am 19.9 21.2 19.4 97 0.3 SSW 11 15 6 8 1023.4 1023.4 -
29/06:30am 19.2 19.5 18.7 97 0.3 SSW 15 19 8 10 1023.2 1023.2 -
29/06:00am 18.7 19.3 18.5 99 0.1 SSW 13 17 7 9 1023.0 1023.0 -
29/05:30am 18.4 18.7 17.8 96 0.4 S 13 15 7 8 1022.6 1022.6 -
29/05:00am 18.6 19.4 18.1 97 0.3 SSW 11 15 6 8 1022.3 1022.3 0.0
29/04:30am 18.7 19.8 18.0 96 0.4 SSW 9 11 5 6 1022.3 1022.3 0.0
29/04:00am 19.0 19.3 18.0 94 0.6 SSW 13 17 7 9 1022.1 1022.1 0.0
29/03:30am 19.1 19.4 17.9 93 0.7 SSW 13 15 7 8 1022.1 1022.1 0.0
29/03:00am 19.0 19.6 17.7 92 0.8 SSW 11 15 6 8 1022.4 1022.4 0.0
29/02:30am 19.1 19.9 18.1 94 0.6 SSW 11 15 6 8 1022.6 1022.6 0.0
29/02:00am 19.1 19.8 17.9 93 0.7 SSW 11 15 6 8 1022.6 1022.6 0.0
29/01:30am 19.1 19.7 17.8 92 0.8 SSW 11 13 6 7 1023.0 1023.0 0.0
29/01:00am 19.4 20.4 17.7 90 1.0 SSW 9 11 5 6 1023.2 1023.2 0.0
29/12:30am 19.9 20.6 18.0 89 1.2 SSW 11 15 6 8 1023.3 1023.3 0.0
29/12:00am 20.4 21.0 17.8 85 1.6 S 11 15 6 8 1023.3 1023.3 0.0
 
Date/Time
EST
Tmp

°C
App
Tmp
°C
Dew
Point
°C
Rel
Hum
%
Delta-T

°C
Wind Press
QNH
hPa
Press
MSL
hPa
Rain
since
9 am
mm
Dir
 
Spd
km/h
Gust
km/h
Spd
kts
Gust
kts
28/11:30pm 20.8 21.0 17.6 82 2.0 SE 13 20 7 11 1023.6 1023.6 0.0
28/11:00pm 22.4 21.9 17.8 75 2.8 ESE 17 19 9 10 1023.9 1023.9 0.0
28/10:30pm 23.0 22.2 18.5 76 2.8 ESE 20 26 11 14 1023.8 1023.8 0.0
28/10:00pm 23.0 21.6 17.9 73 3.2 ESE 22 24 12 13 1023.9 1023.9 0.0
28/09:30pm 23.0 21.1 17.7 72 3.3 ESE 24 30 13 16 1023.8 1023.8 0.0
28/09:00pm 23.0 21.1 18.5 76 2.8 ESE 26 30 14 16 1023.8 1023.8 0.0
28/08:30pm 23.0 22.1 18.3 75 2.9 ESE 20 26 11 14 1023.7 1023.7 0.0
28/08:00pm 23.4 22.2 19.3 78 2.6 ESE 24 26 13 14 1023.6 1023.6 0.0
28/07:30pm 23.2 22.7 18.7 76 2.8 ESE 19 22 10 12 1023.4 1023.4 0.0
28/07:00pm 23.2 22.3 18.3 74 3.1 ESE 20 26 11 14 1023.2 1023.2 0.0
28/06:30pm 23.0 22.1 18.3 75 2.9 SE 20 26 11 14 1022.9 1022.9 0.0
28/06:00pm 23.1 22.3 18.0 73 3.2 ESE 19 22 10 12 1022.7 1022.7 0.0
28/05:30pm 23.2 22.3 18.3 74 3.1 ESE 20 24 11 13 1022.5 1022.5 0.0
28/05:00pm 23.3 22.3 18.0 72 3.3 ESE 20 26 11 14 1022.3 1022.3 0.0
28/04:30pm 24.2 23.5 18.6 71 3.5 ESE 20 22 11 12 1022.2 1022.2 0.0
28/04:00pm 24.7 23.6 18.6 69 3.9 ESE 22 26 12 14 1022.2 1022.2 0.0
28/03:30pm 25.3 23.6 18.2 64 4.5 ESE 24 28 13 15 1022.0 1022.0 0.0
28/03:00pm 25.4 24.1 19.1 68 4.0 ESE 24 28 13 15 1022.0 1022.0 0.0
28/02:30pm 25.8 24.6 18.5 64 4.6 ESE 22 26 12 14 1021.9 1021.9 0.0
28/02:00pm 26.3 25.2 18.7 63 4.8 ESE 22 26 12 14 1022.0 1022.0 0.0
28/01:30pm 25.4 24.8 18.8 67 4.2 ESE 20 26 11 14 1022.0 1022.0 0.0
28/01:00pm 25.7 24.3 18.9 66 4.3 ESE 24 28 13 15 1022.3 1022.3 0.0
28/12:30pm 26.3 26.3 20.2 69 4.0 SE 20 26 11 14 1022.6 1022.6 0.0
28/12:00pm 26.2 26.4 20.5 71 3.7 SSE 20 26 11 14 1023.0 1023.0 0.0
28/11:30am 25.0 24.7 20.3 75 3.1 SSE 22 26 12 14 1023.3 1023.3 0.0
28/11:00am 25.8 25.8 21.0 75 3.2 SSE 22 26 12 14 1023.8 1023.8 0.0
28/10:30am 23.8 23.0 20.1 80 2.4 SSE 24 32 13 17 1024.0 1024.0 0.0
28/10:00am 24.8 24.2 19.8 74 3.2 SE 22 28 12 15 1024.0 1024.0 0.0
28/09:30am 23.9 23.8 20.8 83 2.0 SSE 22 28 12 15 1024.1 1024.1 0.0
28/09:00am 23.4 22.9 20.7 85 1.8 SSE 24 30 13 16 1024.2 1024.2 1.6
28/08:30am 22.4 21.6 20.1 87 1.5 SSE 24 28 13 15 1023.9 1023.9 1.6
28/08:00am 22.2 21.6 20.5 90 1.1 SSE 24 30 13 16 1023.7 1023.7 1.6
28/07:30am 21.3 20.6 21.0 98 0.2 SSE 26 30 14 16 1023.5 1023.5 1.6
28/07:00am 20.5 20.6 20.3 99 0.1 SSE 20 26 11 14 1023.1 1023.1 1.6
28/06:30am 19.7 19.6 19.5 99 0.1 S 19 24 10 13 1023.0 1023.0 1.6
28/06:00am 19.0 19.3 18.8 99 0.1 S 15 19 8 10 1022.8 1022.8 1.6
28/05:30am 19.5 20.8 19.3 99 0.1 SSW 11 19 6 10 1022.7 1022.7 1.6
28/05:00am 19.5 20.4 19.3 99 0.1 S 13 19 7 10 1022.4 1022.4 1.6
28/04:30am 19.4 20.3 19.2 99 0.1 SSW 13 19 7 10 1022.3 1022.3 1.4
28/04:00am 19.2 19.6 19.0 99 0.1 S 15 19 8 10 1022.2 1022.2 1.4
28/03:30am 19.2 19.6 19.0 99 0.1 S 15 19 8 10 1022.2 1022.2 1.4
28/03:00am 19.4 19.9 19.2 99 0.1 S 15 20 8 11 1022.2 1022.2 1.4
28/02:30am 20.3 19.1 20.1 99 0.1 SSE 26 33 14 18 1022.4 1022.4 1.2
28/02:00am 19.6 19.2 19.4 99 0.1 S 20 28 11 15 1022.6 1022.6 1.2
28/01:30am 18.9 19.2 18.7 99 0.1 S 15 19 8 10 1022.8 1022.8 1.2
28/01:00am 19.0 19.6 18.5 97 0.3 S 13 17 7 9 1023.0 1023.0 1.0
28/12:30am 19.4 20.1 18.9 97 0.3 SSW 13 17 7 9 1023.1 1023.1 1.0
28/12:00am 19.6 20.4 19.1 97 0.3 SSW 13 17 7 9 1023.2 1023.2 1.0
 
Date/Time
EST
Tmp

°C
App
Tmp
°C
Dew
Point
°C
Rel
Hum
%
Delta-T

°C
Wind Press
QNH
hPa
Press
MSL
hPa
Rain
since
9 am
mm
Dir
 
Spd
km/h
Gust
km/h
Spd
kts
Gust
kts
27/11:30pm 19.6 20.0 18.9 96 0.4 S 15 22 8 12 1023.2 1023.2 1.0
27/11:00pm 20.0 20.6 19.5 97 0.3 S 15 26 8 14 1023.3 1023.3 1.0
27/10:30pm 19.5 20.2 18.8 96 0.4 SSW 13 17 7 9 1023.4 1023.4 1.0
27/10:00pm 19.3 19.9 18.5 95 0.5 S 13 15 7 8 1023.6 1023.6 1.0
27/09:30pm 19.6 19.8 18.6 94 0.6 S 15 19 8 10 1023.7 1023.7 1.0

Latest Capital City Observations: Canberra | Sydney | Melbourne | Brisbane | Adelaide | Perth | Hobart | Darwin

Other Formats:

Comma delimited format used in spreadsheet applications
http://www.bom.gov.au/fwo/IDQ60901/IDQ60901.94580.axf

JavaScript Object Notation format (JSON) in row-major order
http://www.bom.gov.au/fwo/IDQ60901/IDQ60901.94580.json